Time;durP1;ratioP1;P1;durP2;ratioP2;P2;SDS_P1;SDS_P2;PMS_P1;PMS_P2;Temp;Humidity;BMP_temperature;BMP_pressure;BME280_temperature;BME280_humidity;BME280_pressure;Samples;Min_cycle;Max_cycle;Signal;HPM_P1;HPM_P2
2022/06/08 00:02:08;;;;;;;2.05;1.70;;;;;;;14.01;100.00;100110.47;6226475;28;20186;-90
2022/06/08 00:05:11;;;;;;;2.83;1.60;;;;;;;14.06;100.00;100117.81;6221783;28;20041;-90
2022/06/08 00:08:13;;;;;;;1.60;1.50;;;;;;;14.03;100.00;100116.34;6235459;28;20042;-90
2022/06/08 00:11:16;;;;;;;2.17;1.70;;;;;;;13.99;100.00;100105.44;6235524;28;20034;-90
2022/06/08 00:14:18;;;;;;;1.70;1.60;;;;;;;13.92;100.00;100106.19;6232834;28;20025;-90
2022/06/08 00:17:21;;;;;;;1.98;1.70;;;;;;;13.95;100.00;100106.69;6221464;28;20060;-90
2022/06/08 00:20:24;;;;;;;1.63;1.52;;;;;;;13.95;100.00;100104.09;6239153;28;20091;-90
2022/06/08 00:23:26;;;;;;;2.00;1.70;;;;;;;13.92;100.00;100109.59;6231543;28;20483;-90
2022/06/08 00:26:28;;;;;;;2.05;1.73;;;;;;;13.87;100.00;100096.25;6229036;28;20533;-90
2022/06/08 00:29:31;;;;;;;3.90;1.80;;;;;;;13.92;100.00;100098.38;6248234;28;20136;-90
2022/06/08 00:32:34;;;;;;;2.00;1.90;;;;;;;13.95;100.00;100093.69;6245557;28;20052;-90
2022/06/08 00:35:37;;;;;;;2.08;1.85;;;;;;;13.95;100.00;100091.09;6241334;28;20525;-90
2022/06/08 00:38:39;;;;;;;2.75;1.63;;;;;;;13.90;100.00;100090.72;6237514;28;20536;-90
2022/06/08 00:41:50;;;;;;;2.20;2.00;;;;;;;13.85;100.00;100092.97;6237794;28;20049;-90
2022/06/08 00:44:54;;;;;;;;;;;;;;;13.78;100.00;100079.75;6237598;28;20129;-90
2022/06/08 00:48:01;;;;;;;3.03;2.50;;;;;;;13.81;100.00;100083.03;6234199;28;20385;-90
2022/06/08 00:51:04;;;;;;;2.50;2.30;;;;;;;13.78;100.00;100084.13;6243579;28;20033;-90
2022/06/08 00:54:12;;;;;;;2.40;2.20;;;;;;;13.81;100.00;100083.84;6228078;28;20569;-90
2022/06/08 00:57:19;;;;;;;2.30;2.10;;;;;;;13.89;100.00;100081.31;6221231;28;20399;-90
2022/06/08 01:00:26;;;;;;;4.15;2.38;;;;;;;13.91;100.00;100074.16;6248920;28;20080;-90
2022/06/08 01:03:28;;;;;;;2.25;2.05;;;;;;;14.04;100.00;100072.94;6236552;28;20049;-90
2022/06/08 01:06:33;;;;;;;2.20;2.00;;;;;;;14.11;100.00;100071.31;6230537;28;20380;-90
2022/06/08 01:09:39;;;;;;;2.28;2.08;;;;;;;14.16;100.00;100063.84;6229213;28;20139;-90
2022/06/08 01:12:43;;;;;;;3.17;2.17;;;;;;;14.19;100.00;100069.56;6245469;28;20049;-90
2022/06/08 01:15:47;;;;;;;2.10;1.90;;;;;;;14.23;100.00;100070.06;6230976;28;20050;-90
2022/06/08 01:18:52;;;;;;;1.95;1.70;;;;;;;14.25;100.00;100062.13;6234293;28;20073;-90
2022/06/08 01:22:02;;;;;;;2.03;1.90;;;;;;;14.29;100.00;100059.06;6238731;28;20060;-90
2022/06/08 01:25:16;;;;;;;2.08;1.90;;;;;;;14.28;100.00;100054.78;6237394;28;20066;-90
2022/06/08 01:28:43;;;;;;;;;;;;;;;14.29;100.00;100055.63;6250781;28;20156;-90
2022/06/08 01:32:05;;;;;;;2.83;2.00;;;;;;;14.28;100.00;100039.19;6230912;28;19925;-90
2022/06/08 01:35:07;;;;;;;;;;;;;;;14.29;100.00;100047.81;6229308;28;20505;-90
2022/06/08 01:38:39;;;;;;;4.20;2.20;;;;;;;14.28;100.00;100043.56;6248001;28;19952;-90
2022/06/08 01:42:10;;;;;;;2.30;2.10;;;;;;;14.27;100.00;100036.75;6234885;28;20120;-90
2022/06/08 01:45:33;;;;;;;2.30;2.10;;;;;;;14.21;100.00;100036.41;6216588;28;20049;-90
2022/06/08 01:48:44;;;;;;;2.50;2.30;;;;;;;14.18;100.00;100026.28;6232154;28;20080;-90
2022/06/08 01:52:16;;;;;;;2.50;2.30;;;;;;;14.20;100.00;100016.53;6240796;28;20037;-90
2022/06/08 01:55:31;;;;;;;2.30;2.10;;;;;;;14.24;100.00;100024.06;6220640;28;20046;-90
2022/06/08 01:59:10;;;;;;;2.63;2.42;;;;;;;14.29;100.00;100013.97;6262708;28;20498;-90
2022/06/08 02:02:39;;;;;;;3.10;2.35;;;;;;;14.32;100.00;100011.84;6236357;28;20046;-90
2022/06/08 02:06:17;;;;;;;2.50;2.30;;;;;;;14.30;100.00;100013.00;6252417;28;20155;-90
2022/06/08 02:09:29;;;;;;;2.78;2.35;;;;;;;14.33;100.00;100005.66;6225001;28;20052;-90
2022/06/08 02:12:36;;;;;;;4.45;3.25;;;;;;;14.36;100.00;100005.38;6235026;28;20041;-89
2022/06/08 02:15:45;;;;;;;3.05;2.80;;;;;;;14.34;100.00;99994.31;6250377;28;20050;-91
2022/06/08 02:19:00;;;;;;;3.08;2.67;;;;;;;14.37;100.00;99996.56;6231683;28;20042;-90
2022/06/08 02:22:10;;;;;;;3.40;3.10;;;;;;;14.37;100.00;100000.97;6233784;28;20046;-90
2022/06/08 02:25:50;;;;;;;3.25;2.95;;;;;;;14.40;100.00;99998.03;6252630;28;20041;-90
2022/06/08 02:28:54;;;;;;;3.03;2.72;;;;;;;14.38;100.00;99990.41;6142824;28;20066;-90
2022/06/08 02:35:43;;;;;;;3.90;3.50;;;;;;;14.37;100.00;99993.97;6183389;28;20899;-90
2022/06/08 02:39:03;;;;;;;3.50;3.20;;;;;;;14.35;100.00;99998.53;6169449;28;20090;-90
2022/06/08 02:42:12;;;;;;;3.77;3.47;;;;;;;14.30;100.00;99992.16;6184763;28;20140;-90
2022/06/08 02:45:21;;;;;;;3.70;3.40;;;;;;;14.31;100.00;99993.78;6169250;28;20683;-89
2022/06/08 02:48:23;;;;;;;3.80;3.17;;;;;;;14.24;100.00;99985.81;6169532;28;20035;-90
2022/06/08 02:51:30;;;;;;;5.38;3.60;;;;;;;14.25;100.00;99994.44;6166126;28;20046;-90
2022/06/08 02:54:32;;;;;;;4.72;3.78;;;;;;;14.29;100.00;99995.75;6172998;28;20350;-90
2022/06/08 02:57:53;;;;;;;3.70;3.40;;;;;;;14.23;100.00;99989.38;6171048;28;20054;-89
2022/06/08 03:01:03;;;;;;;8.10;5.90;;;;;;;14.13;100.00;99997.31;6176190;28;20056;-89
2022/06/08 03:04:15;;;;;;;6.20;5.05;;;;;;;14.04;100.00;99993.06;6162126;28;20133;-90
2022/06/08 03:07:23;;;;;;;5.63;3.55;;;;;;;13.98;100.00;99996.28;6229748;28;20046;-90
2022/06/08 03:10:30;;;;;;;4.25;3.85;;;;;;;13.91;100.00;99990.91;6261626;28;20045;-90
2022/06/08 03:13:54;;;;;;;3.88;3.47;;;;;;;13.85;100.00;99995.91;6252150;28;20600;-90
2022/06/08 03:17:03;;;;;;;4.93;4.15;;;;;;;13.83;100.00;100001.25;6222094;28;20107;-90
2022/06/08 03:20:08;;;;;;;4.28;3.65;;;;;;;13.81;100.00;100005.78;6229882;28;20050;-90
2022/06/08 03:23:12;;;;;;;5.63;4.15;;;;;;;13.74;100.00;100003.00;6233364;28;20049;-89
2022/06/08 03:26:17;;;;;;;5.47;4.30;;;;;;;13.78;100.00;99995.69;6216026;28;20486;-90
2022/06/08 03:29:18;;;;;;;5.32;4.70;;;;;;;13.83;100.00;99997.84;6231881;28;20145;-90
2022/06/08 03:32:21;;;;;;;6.25;4.72;;;;;;;13.87;100.00;100004.38;6238289;28;20394;-90
2022/06/08 03:35:23;;;;;;;4.40;4.00;;;;;;;13.90;100.00;100004.88;6236916;28;20453;-90
2022/06/08 03:38:25;;;;;;;5.60;5.00;;;;;;;13.90;100.00;100006.66;6236046;28;20041;-90
2022/06/08 03:41:28;;;;;;;5.70;4.68;;;;;;;13.89;100.00;100016.25;6239343;28;20049;-90
2022/06/08 03:44:30;;;;;;;6.70;5.68;;;;;;;13.91;100.00;100011.72;6236889;28;20064;-90
2022/06/08 03:47:39;;;;;;;6.00;5.15;;;;;;;13.92;100.00;100007.31;6239315;28;20056;-90
2022/06/08 03:50:42;;;;;;;5.88;5.22;;;;;;;13.97;100.00;100003.28;6236280;28;20061;-90
2022/06/08 03:53:51;;;;;;;5.78;5.20;;;;;;;14.03;100.00;100003.63;6238361;28;20042;-90
2022/06/08 03:57:00;;;;;;;6.57;4.88;;;;;;;14.14;100.00;100001.56;6239549;28;20038;-90
2022/06/08 04:00:05;;;;;;;5.53;4.93;;;;;;;14.24;100.00;100013.63;6220246;28;20171;-90
2022/06/08 04:03:18;;;;;;;6.30;5.13;;;;;;;14.29;100.00;99995.75;6234507;28;20057;-89
2022/06/08 04:06:22;;;;;;;7.93;5.95;;;;;;;14.39;100.00;99999.84;6245004;28;20112;-90
2022/06/08 04:09:25;;;;;;;6.53;5.80;;;;;;;14.54;100.00;100004.47;6245192;28;20034;-90
2022/06/08 04:12:27;;;;;;;9.18;6.18;;;;;;;14.74;100.00;100003.19;6257637;28;20052;-89
2022/06/08 04:15:44;;;;;;;8.18;6.70;;;;;;;14.98;100.00;100004.19;6264974;28;20143;-89
2022/06/08 04:19:08;;;;;;;7.47;6.30;;;;;;;15.20;100.00;100013.94;6248553;28;20064;-89
2022/06/08 04:22:12;;;;;;;6.80;6.00;;;;;;;15.30;100.00;100008.56;6250374;28;20421;-89
2022/06/08 04:25:16;;;;;;;6.63;5.93;;;;;;;15.36;100.00;100018.34;6237586;28;20115;-89
2022/06/08 04:28:23;;;;;;;6.10;5.47;;;;;;;15.40;100.00;100014.44;6236268;28;20042;-89
2022/06/08 04:31:34;;;;;;;6.95;6.25;;;;;;;15.43;100.00;100011.50;6241067;28;20041;-90
2022/06/08 04:34:57;;;;;;;8.23;6.85;;;;;;;15.51;100.00;100015.88;6238773;28;20657;-89
2022/06/08 04:38:00;;;;;;;8.85;7.95;;;;;;;15.55;100.00;100014.56;6241994;28;20399;-90
2022/06/08 04:41:03;;;;;;;9.00;7.35;;;;;;;15.60;100.00;100014.91;6235052;28;20432;-90
2022/06/08 04:44:06;;;;;;;8.40;7.50;;;;;;;15.61;100.00;100010.50;6239618;28;20054;-89
2022/06/08 04:47:10;;;;;;;9.48;8.23;;;;;;;15.62;100.00;100007.69;6235939;28;20502;-88
2022/06/08 04:50:14;;;;;;;9.88;7.38;;;;;;;15.68;100.00;100006.25;6242404;28;20738;-89
2022/06/08 04:53:17;;;;;;;11.60;8.85;;;;;;;15.76;100.00;100000.22;6242316;28;20056;-90
2022/06/08 04:56:20;;;;;;;12.07;8.73;;;;;;;15.84;100.00;100011.44;6234725;28;20044;-90
2022/06/08 04:59:27;;;;;;;11.27;8.93;;;;;;;15.97;100.00;100004.88;6231098;28;20041;-89
2022/06/08 05:02:44;;;;;;;11.07;8.52;;;;;;;16.06;100.00;99998.63;6236110;28;20062;-90
2022/06/08 05:06:07;;;;;;;11.50;9.10;;;;;;;16.23;100.00;99994.97;6219807;28;20061;-90
2022/06/08 05:09:10;;;;;;;10.57;9.48;;;;;;;16.39;100.00;99982.78;6236493;28;20529;-90
2022/06/08 05:12:17;;;;;;;13.18;10.15;;;;;;;16.47;100.00;99996.63;6235177;28;20147;-90
2022/06/08 05:15:30;;;;;;;11.20;9.80;;;;;;;16.50;100.00;99991.06;6221954;28;20046;-89
2022/06/08 05:18:35;;;;;;;11.52;10.15;;;;;;;16.54;100.00;99987.09;6217424;28;20042;-87
2022/06/08 05:21:40;;;;;;;12.60;9.68;;;;;;;16.71;100.00;99984.38;6219658;28;20125;-87
2022/06/08 05:24:49;;;;;;;13.93;10.30;;;;;;;16.92;100.00;99987.19;6192676;28;20543;-87
2022/06/08 05:27:51;;;;;;;13.40;10.00;;;;;;;17.12;100.00;99995.38;6238133;28;20444;-87
2022/06/08 05:30:56;;;;;;;10.30;9.18;;;;;;;17.26;100.00;100000.81;6250127;28;20055;-87
2022/06/08 05:34:01;;;;;;;12.05;9.85;;;;;;;17.30;100.00;100005.50;6245176;28;20042;-87
2022/06/08 05:37:04;;;;;;;12.18;9.50;;;;;;;17.32;100.00;100005.34;6245025;28;20501;-88
2022/06/08 05:40:07;;;;;;;11.95;9.27;;;;;;;17.29;100.00;100011.75;6249065;28;20048;-87
2022/06/08 05:43:12;;;;;;;10.60;9.20;;;;;;;17.23;100.00;100015.06;6236588;28;20074;-87
2022/06/08 05:46:20;;;;;;;10.57;8.35;;;;;;;17.18;100.00;100004.31;6229432;28;20060;-87
2022/06/08 05:49:27;;;;;;;10.35;8.63;;;;;;;17.18;100.00;100005.13;6235066;28;20072;-87
2022/06/08 05:52:32;;;;;;;9.63;8.52;;;;;;;17.20;100.00;100007.56;6234481;28;20206;-87
2022/06/08 05:55:34;;;;;;;9.80;8.70;;;;;;;17.25;100.00;100004.41;6255186;28;20071;-87
2022/06/08 05:58:37;;;;;;;10.25;8.73;;;;;;;17.37;100.00;100011.66;6243876;28;20088;-87
2022/06/08 06:01:44;;;;;;;8.50;7.57;;;;;;;17.56;100.00;100012.13;6241291;28;20053;-87
2022/06/08 06:04:47;;;;;;;9.05;7.60;;;;;;;17.70;100.00;100010.50;6235755;28;20331;-88
2022/06/08 06:07:50;;;;;;;13.27;8.38;;;;;;;17.76;100.00;100013.22;6253073;28;20048;-87
2022/06/08 06:11:02;;;;;;;8.52;7.65;;;;;;;17.83;100.00;100008.91;6225369;28;20049;-87
2022/06/08 06:14:09;;;;;;;8.15;7.35;;;;;;;17.93;100.00;100011.25;6222065;28;20075;-87
2022/06/08 06:17:15;;;;;;;6.65;5.95;;;;;;;18.10;100.00;100014.50;6256768;28;20045;-87
2022/06/08 06:20:19;;;;;;;7.93;5.15;;;;;;;18.32;100.00;100012.75;6246448;28;20037;-87
2022/06/08 06:23:39;;;;;;;6.20;5.10;;;;;;;18.57;100.00;100007.97;6254123;28;20057;-87
2022/06/08 06:27:00;;;;;;;5.88;5.38;;;;;;;18.73;100.00;100005.13;6246216;28;20053;-87
2022/06/08 06:30:41;;;;;;;7.15;5.93;;;;;;;18.94;100.00;100001.69;6220869;28;20072;-88
2022/06/08 06:33:56;;;;;;;6.57;5.28;;;;;;;19.08;100.00;100012.28;6224811;28;20466;-88
2022/06/08 06:37:01;;;;;;;8.70;6.03;;;;;;;19.24;100.00;100016.47;6202134;28;20216;-88
2022/06/08 06:40:07;;;;;;;6.30;5.70;;;;;;;19.27;100.00;100013.44;6219664;28;20045;-88
2022/06/08 06:43:11;;;;;;;6.88;5.78;;;;;;;19.29;100.00;100014.06;6213222;28;20045;-88
2022/06/08 06:46:13;;;;;;;6.47;5.88;;;;;;;19.36;100.00;100017.56;6212436;28;20054;-88
2022/06/08 06:49:35;;;;;;;7.20;6.20;;;;;;;19.44;100.00;100012.16;6181166;28;20054;-88
2022/06/08 06:52:37;;;;;;;7.93;6.18;;;;;;;19.62;100.00;100008.22;6174544;28;20538;-88
2022/06/08 06:55:44;;;;;;;6.53;5.93;;;;;;;19.81;100.00;100012.81;6176079;28;20057;-88
2022/06/08 06:58:53;;;;;;;7.15;6.45;;;;;;;19.94;100.00;100012.88;6190826;28;20050;-88
2022/06/08 07:01:57;;;;;;;8.57;6.65;;;;;;;19.96;100.00;100016.13;6176079;28;20050;-88
2022/06/08 07:05:00;;;;;;;6.90;6.20;;;;;;;19.95;100.00;100014.53;6173631;28;20050;-88
2022/06/08 07:08:04;;;;;;;7.68;6.00;;;;;;;20.06;100.00;100017.59;6193697;28;20054;-87
2022/06/08 07:14:28;;;;;;;5.78;5.20;;;;;;;19.29;100.00;100008.84;6172246;28;20320;-87
2022/06/08 07:17:43;;;;;;;6.22;5.10;;;;;;;18.90;100.00;99987.31;6196358;28;21220;-87
2022/06/08 07:20:45;;;;;;;6.43;5.13;;;;;;;18.96;100.00;99984.97;6202739;28;20046;-88
2022/06/08 07:23:47;;;;;;;5.45;4.95;;;;;;;18.81;100.00;99985.84;6174862;28;20049;-87
2022/06/08 07:26:50;;;;;;;5.30;4.80;;;;;;;19.02;100.00;99968.47;6218702;28;20041;-87
2022/06/08 07:29:52;;;;;;;6.43;5.40;;;;;;;19.11;100.00;99968.13;6245571;28;20041;-87
2022/06/08 07:33:01;;;;;;;6.45;5.57;;;;;;;19.30;100.00;99974.53;6243760;28;20049;-87
2022/06/08 07:36:04;;;;;;;5.35;4.72;;;;;;;19.65;96.98;99965.81;6228612;28;20038;-87
2022/06/08 07:39:06;;;;;;;4.32;3.92;;;;;;;19.81;93.04;99959.50;6249682;28;20119;-88
2022/06/08 07:42:08;;;;;;;5.38;3.85;;;;;;;19.96;92.32;99968.84;6236546;28;20515;-87
2022/06/08 07:45:12;;;;;;;5.10;3.70;;;;;;;20.21;92.44;99961.25;6257789;28;20044;-87
2022/06/08 07:51:35;;;;;;;4.13;3.72;;;;;;;20.69;89.96;99946.38;6242844;28;20037;-87
2022/06/08 07:54:38;;;;;;;5.13;3.05;;;;;;;20.84;85.22;99949.63;6252164;28;20584;-87
2022/06/08 07:57:40;;;;;;;3.50;3.20;;;;;;;20.78;86.36;99937.28;6235856;28;20046;-87
2022/06/08 08:00:46;;;;;;;8.25;3.83;;;;;;;20.77;88.08;99938.28;6237855;28;20049;-87
2022/06/08 08:03:49;;;;;;;4.65;3.50;;;;;;;20.80;87.23;99933.44;6248282;28;20041;-88
2022/06/08 08:06:52;;;;;;;3.30;3.00;;;;;;;20.85;85.84;99936.28;6257842;28;20049;-87
2022/06/08 08:09:54;;;;;;;2.90;2.70;;;;;;;21.02;86.51;99938.50;6232551;28;20080;-86
2022/06/08 08:12:56;;;;;;;3.17;2.88;;;;;;;21.23;85.59;99938.25;6229202;28;20042;-87
2022/06/08 08:16:00;;;;;;;4.68;2.90;;;;;;;21.40;77.11;99933.38;6234145;28;20467;-87
2022/06/08 08:19:03;;;;;;;3.60;2.70;;;;;;;21.54;80.34;99934.19;6244171;28;20120;-88
2022/06/08 08:22:06;;;;;;;4.45;2.55;;;;;;;21.78;76.88;99932.66;6252986;28;20052;-87
2022/06/08 08:25:09;;;;;;;3.47;3.10;;;;;;;22.01;75.71;99931.31;6222397;28;20038;-87
2022/06/08 08:28:11;;;;;;;3.45;2.88;;;;;;;22.18;74.11;99929.00;6228236;28;20127;-88
2022/06/08 08:31:13;;;;;;;2.60;2.40;;;;;;;22.39;75.59;99920.81;6238833;28;20604;-87
2022/06/08 08:34:18;;;;;;;6.85;2.70;;;;;;;22.58;75.89;99925.13;6237799;28;20041;-87
2022/06/08 08:37:19;;;;;;;7.45;3.83;;;;;;;22.76;73.98;99928.84;6251595;28;20033;-87
2022/06/08 08:40:34;;;;;;;3.30;3.00;;;;;;;22.80;65.03;99924.72;6222460;28;20037;-87
2022/06/08 08:43:38;;;;;;;3.30;2.78;;;;;;;22.52;65.21;99914.63;6224029;28;20054;-87
2022/06/08 08:46:55;;;;;;;2.92;2.72;;;;;;;22.15;68.00;99902.03;6225866;28;20048;-87
2022/06/08 08:50:10;;;;;;;4.95;3.17;;;;;;;21.89;73.14;99904.84;6244413;28;20064;-87
2022/06/08 08:53:45;;;;;;;4.03;2.95;;;;;;;21.71;74.09;99903.72;6238634;28;20715;-88
2022/06/08 08:56:50;;;;;;;6.28;3.10;;;;;;;21.76;74.32;99904.91;6208660;28;20053;-87
2022/06/08 08:59:52;;;;;;;3.92;3.05;;;;;;;22.02;73.11;99891.59;6261786;28;20448;-88
2022/06/08 09:06:18;;;;;;;4.90;2.95;;;;;;;22.78;69.94;99884.56;6237723;28;20041;-88
2022/06/08 09:09:30;;;;;;;3.35;3.05;;;;;;;23.16;67.50;99884.44;6241288;28;20041;-88
2022/06/08 09:12:33;;;;;;;4.50;2.55;;;;;;;23.49;69.80;99882.44;6238167;28;20049;-88
2022/06/08 09:15:54;;;;;;;2.55;2.35;;;;;;;23.61;59.60;99878.03;6229899;28;20044;-88
2022/06/08 09:18:56;;;;;;;3.40;2.40;;;;;;;23.63;57.94;99873.31;6214182;28;20048;-88
2022/06/08 09:22:07;;;;;;;2.80;2.60;;;;;;;23.53;58.87;99878.34;6219879;28;20044;-88
2022/06/08 09:25:30;;;;;;;2.67;2.47;;;;;;;23.36;63.87;99878.13;6229586;28;20030;-88
2022/06/08 09:28:34;;;;;;;2.70;2.50;;;;;;;23.17;64.51;99870.19;6218679;28;20809;-88
2022/06/08 09:31:38;;;;;;;3.15;2.85;;;;;;;23.10;67.43;99856.25;6225080;28;20073;-88
2022/06/08 09:34:53;;;;;;;3.17;2.53;;;;;;;23.17;65.84;99854.34;6227184;28;20119;-88
2022/06/08 09:38:02;;;;;;;2.58;2.38;;;;;;;23.37;58.60;99858.59;6223300;28;20120;-88
2022/06/08 09:41:13;;;;;;;2.38;2.10;;;;;;;23.59;61.24;99851.00;6218956;28;20042;-88
2022/06/08 09:44:20;;;;;;;2.67;2.22;;;;;;;23.88;59.25;99860.00;6228562;28;20044;-87
2022/06/08 09:51:28;;;;;;;2.50;2.30;;;;;;;24.08;54.07;99843.84;6246492;28;20049;-88
2022/06/08 09:54:47;;;;;;;3.28;2.30;;;;;;;24.13;56.60;99846.63;6172075;28;20050;-88
2022/06/08 09:58:16;;;;;;;2.38;1.92;;;;;;;24.20;54.03;99844.69;6173956;28;20181;-89
2022/06/08 10:02:07;;;;;;;2.83;2.55;;;;;;;24.03;53.51;99841.09;6176647;28;20526;-89
2022/06/08 10:05:24;;;;;;;2.38;2.17;;;;;;;24.18;56.72;99836.16;6180067;28;20042;-89
2022/06/08 10:08:32;;;;;;;2.10;2.00;;;;;;;24.71;54.33;99840.59;6180318;28;20046;-89
2022/06/08 10:11:52;;;;;;;2.38;2.00;;;;;;;24.91;50.36;99836.78;6178569;28;20061;-89
2022/06/08 10:15:08;;;;;;;2.10;1.95;;;;;;;25.19;51.93;99838.69;6171941;28;20054;-89
2022/06/08 10:18:19;;;;;;;2.47;2.28;;;;;;;25.40;48.96;99839.13;6173701;28;20050;-89
2022/06/08 10:21:27;;;;;;;2.80;2.20;;;;;;;25.54;51.10;99825.34;6175715;28;20046;-88
2022/06/08 10:25:04;;;;;;;2.47;2.28;;;;;;;25.61;49.85;99835.00;6180920;28;20499;-89
2022/06/08 10:28:13;;;;;;;2.40;1.98;;;;;;;25.50;48.97;99823.41;6171404;28;20042;-89
2022/06/08 10:31:28;;;;;;;2.35;1.50;;;;;;;25.42;50.60;99826.44;6213526;28;20061;-89
2022/06/08 10:34:34;;;;;;;1.80;1.70;;;;;;;25.55;50.25;99826.16;6232984;28;20154;-89
2022/06/08 10:37:40;;;;;;;3.25;2.15;;;;;;;25.75;50.67;99825.72;6227293;28;20088;-89
2022/06/08 10:41:00;;;;;;;2.40;2.20;;;;;;;25.79;50.82;99819.69;6237520;28;20068;-89
2022/06/08 10:44:04;;;;;;;2.28;2.08;;;;;;;25.82;46.75;99825.56;6239577;28;20045;-89
2022/06/08 10:47:13;;;;;;;3.88;2.38;;;;;;;25.94;46.62;99813.88;6237503;28;20053;-88
2022/06/08 10:50:27;;;;;;;4.43;2.40;;;;;;;26.24;47.89;99818.06;6234422;28;20040;-90
2022/06/08 10:57:36;;;;;;;2.33;2.03;;;;;;;25.75;45.60;99825.72;6224803;28;20126;-88
2022/06/08 11:00:58;;;;;;;2.15;1.85;;;;;;;25.50;49.04;99821.56;6245062;28;20037;-89
2022/06/08 11:04:02;;;;;;;2.30;2.10;;;;;;;25.51;50.89;99819.72;6228178;28;20045;-89
2022/06/08 11:07:12;;;;;;;2.00;1.90;;;;;;;25.45;50.48;99816.16;6245827;28;20505;-89
2022/06/08 11:10:50;;;;;;;2.22;1.90;;;;;;;25.39;49.08;99811.81;6251181;28;20045;-89
2022/06/08 11:13:53;;;;;;;1.95;1.85;;;;;;;25.49;49.09;99816.47;6252761;28;20055;-89
2022/06/08 11:17:03;;;;;;;2.17;1.90;;;;;;;26.09;45.83;99813.34;6255616;28;20041;-89
2022/06/08 11:20:36;;;;;;;2.08;1.98;;;;;;;26.37;46.46;99809.78;6245204;28;20098;-89
2022/06/08 11:23:42;;;;;;;2.00;1.90;;;;;;;26.27;47.14;99806.19;6224160;28;20060;-89
2022/06/08 11:26:50;;;;;;;1.98;1.80;;;;;;;26.39;47.89;99798.94;6232556;28;20041;-89
2022/06/08 11:29:55;;;;;;;1.58;1.48;;;;;;;26.35;43.11;99793.28;6248501;28;20628;-88
2022/06/08 11:32:57;;;;;;;2.15;1.95;;;;;;;26.51;45.35;99789.00;6243980;28;20399;-89
2022/06/08 11:36:14;;;;;;;2.08;1.67;;;;;;;26.88;40.94;99782.34;6229696;28;20507;-89
2022/06/08 11:39:51;;;;;;;2.05;1.55;;;;;;;26.93;42.57;99788.53;6227560;28;20038;-89
2022/06/08 11:43:18;;;;;;;1.50;1.40;;;;;;;26.74;42.55;99785.38;6230293;28;20049;-89
2022/06/08 11:46:37;;;;;;;1.73;1.50;;;;;;;26.53;41.14;99775.50;6231602;28;20041;-89
2022/06/08 11:49:45;;;;;;;1.90;1.70;;;;;;;26.08;42.49;99777.22;6224939;28;20442;-88
2022/06/08 11:53:05;;;;;;;1.80;1.70;;;;;;;25.47;44.35;99769.03;6224220;28;20049;-89
2022/06/08 11:56:35;;;;;;;1.77;1.60;;;;;;;25.17;45.94;99765.81;6232343;28;20044;-89
2022/06/08 11:59:39;;;;;;;1.70;1.60;;;;;;;25.04;46.03;99765.03;6237630;28;20039;-89
2022/06/08 12:02:42;;;;;;;2.72;1.85;;;;;;;25.08;50.19;99762.72;6226170;28;20045;-88
2022/06/08 12:05:53;;;;;;;3.30;1.73;;;;;;;25.25;48.33;99760.16;6230997;28;20037;-89
2022/06/08 12:09:10;;;;;;;1.95;1.80;;;;;;;26.06;50.35;99757.28;6228011;28;20111;-89
2022/06/08 12:12:14;;;;;;;2.28;1.60;;;;;;;26.79;45.50;99750.09;6226068;28;20045;-89
2022/06/08 12:15:48;;;;;;;3.00;1.77;;;;;;;26.87;45.38;99747.00;6238515;28;20041;-89
2022/06/08 12:18:55;;;;;;;3.47;1.83;;;;;;;26.44;45.52;99743.25;6238833;28;20049;-89
2022/06/08 12:22:19;;;;;;;2.70;1.90;;;;;;;25.77;47.78;99742.25;6232667;28;20479;-89
2022/06/08 12:25:25;;;;;;;3.03;1.70;;;;;;;25.33;47.88;99741.22;6224264;28;20168;-89
2022/06/08 12:28:27;;;;;;;4.85;1.48;;;;;;;25.01;44.98;99746.94;6234479;28;20068;-89
2022/06/08 12:31:31;;;;;;;4.70;1.77;;;;;;;24.55;48.04;99745.22;6239813;28;20132;-88
2022/06/08 12:35:11;;;;;;;5.55;1.90;;;;;;;24.15;54.06;99746.72;6224017;28;20138;-89
2022/06/08 12:38:23;;;;;;;7.63;2.22;;;;;;;23.76;56.05;99737.59;6227602;28;20077;-89
2022/06/08 12:41:42;;;;;;;6.10;1.95;;;;;;;23.40;58.45;99737.47;6233589;28;20050;-89
2022/06/08 12:44:51;;;;;;;4.47;1.70;;;;;;;23.14;59.76;99743.09;6233927;28;20121;-89
2022/06/08 12:47:54;;;;;;;2.10;1.90;;;;;;;22.97;55.94;99729.66;6229888;28;20042;-89
2022/06/08 12:50:58;;;;;;;1.90;1.80;;;;;;;22.79;56.62;99731.28;6233284;28;20045;-88
2022/06/08 12:54:02;;;;;;;1.77;1.67;;;;;;;22.58;56.93;99726.44;6230783;28;20052;-89
2022/06/08 12:57:23;;;;;;;4.75;1.70;;;;;;;22.33;60.48;99727.34;6227398;28;20052;-89
2022/06/08 13:00:30;;;;;;;1.52;1.42;;;;;;;22.19;61.30;99731.09;6225944;28;20064;-89
2022/06/08 13:03:32;;;;;;;2.35;1.50;;;;;;;22.01;62.43;99718.69;6223328;28;20045;-89
2022/06/08 13:06:34;;;;;;;2.10;1.90;;;;;;;21.98;63.04;99720.91;6250267;28;20612;-88
2022/06/08 13:09:36;;;;;;;3.65;2.00;;;;;;;21.85;63.76;99716.56;6239849;28;20037;-88
2022/06/08 13:13:03;;;;;;;2.47;1.73;;;;;;;21.68;64.19;99721.56;6235738;28;20037;-89
2022/06/08 13:16:15;;;;;;;1.77;1.67;;;;;;;21.66;63.08;99710.41;6243362;28;20572;-88
2022/06/08 13:19:18;;;;;;;2.17;1.65;;;;;;;21.36;64.96;99708.34;6215903;28;20821;-89
2022/06/08 13:22:24;;;;;;;2.58;1.83;;;;;;;21.09;68.28;99702.41;6216506;28;20049;-89
2022/06/08 13:25:27;;;;;;;3.70;1.90;;;;;;;20.95;70.08;99699.06;6223904;28;20140;-90
2022/06/08 13:28:32;;;;;;;2.15;1.75;;;;;;;20.98;73.72;99698.63;6240062;28;20276;-90
2022/06/08 13:31:39;;;;;;;2.10;1.90;;;;;;;21.19;69.61;99694.91;6227911;28;20037;-89
2022/06/08 13:34:46;;;;;;;2.42;2.00;;;;;;;21.53;68.78;99695.53;6234864;28;20651;-89
2022/06/08 13:37:57;;;;;;;1.73;1.63;;;;;;;21.92;65.20;99693.59;6236581;28;20062;-89
2022/06/08 13:41:01;;;;;;;1.88;1.73;;;;;;;22.25;63.50;99689.88;6233013;28;20038;-89
2022/06/08 13:44:11;;;;;;;2.55;1.80;;;;;;;22.52;61.62;99699.13;6233793;28;20061;-89
2022/06/08 13:47:18;;;;;;;2.20;1.70;;;;;;;22.70;60.34;99694.88;6227616;28;20510;-89
2022/06/08 13:50:24;;;;;;;2.05;1.70;;;;;;;22.86;63.00;99704.84;6237471;28;20041;-89
2022/06/08 13:53:28;;;;;;;1.60;1.50;;;;;;;22.90;56.06;99695.44;6228413;28;20529;-89
2022/06/08 13:56:33;;;;;;;1.67;1.55;;;;;;;22.76;59.29;99694.00;6228777;28;20495;-89
2022/06/08 13:59:36;;;;;;;3.17;1.70;;;;;;;22.73;59.27;99694.41;6234617;28;20577;-89
2022/06/08 14:03:17;;;;;;;1.67;1.42;;;;;;;22.92;60.58;99687.31;6232201;28;20045;-89
2022/06/08 14:13:16;;;;;;;2.95;1.50;;;;;;;23.67;56.55;99683.41;6175121;28;20069;-89
2022/06/08 14:16:19;;;;;;;3.35;1.65;;;;;;;23.94;55.44;99675.88;6171098;28;20121;-89
2022/06/08 14:19:37;;;;;;;2.25;1.42;;;;;;;24.28;55.09;99676.91;6170245;28;20586;-89
2022/06/08 14:22:41;;;;;;;5.90;1.65;;;;;;;24.59;52.84;99669.63;6154374;28;20055;-89
2022/06/08 14:25:44;;;;;;;2.28;2.15;;;;;;;24.87;51.37;99660.91;6177440;28;20046;-89
2022/06/08 14:29:06;;;;;;;2.80;1.88;;;;;;;24.98;54.76;99664.53;6174033;28;20193;-89
2022/06/08 14:32:39;;;;;;;2.60;1.40;;;;;;;25.01;49.54;99662.22;6184585;28;20050;-89
2022/06/08 14:35:43;;;;;;;1.75;1.35;;;;;;;24.96;47.69;99663.97;6173798;28;20050;-89
2022/06/08 14:39:07;;;;;;;2.22;1.52;;;;;;;24.89;50.80;99657.00;6178733;28;20665;-89
2022/06/08 14:42:09;;;;;;;1.30;1.20;;;;;;;24.90;49.93;99653.28;6174676;28;20085;-89
2022/06/08 14:45:11;;;;;;;1.98;1.20;;;;;;;25.03;48.06;99656.69;6181360;28;20607;-88
2022/06/08 14:48:15;;;;;;;1.92;1.52;;;;;;;24.99;52.38;99652.91;6240162;28;20168;-89
2022/06/08 14:51:20;;;;;;;2.70;1.30;;;;;;;24.83;51.68;99646.53;6241657;28;20041;-89
2022/06/08 14:54:26;;;;;;;3.38;1.45;;;;;;;24.59;51.36;99648.44;6231757;28;20372;-88
2022/06/08 14:57:31;;;;;;;1.30;1.20;;;;;;;24.23;51.88;99645.06;6239642;28;20593;-89
2022/06/08 15:00:33;;;;;;;1.17;1.10;;;;;;;23.78;52.31;99649.09;6254308;28;20045;-89
2022/06/08 15:03:35;;;;;;;1.52;1.42;;;;;;;23.27;56.84;99639.91;6227174;28;20062;-88
2022/06/08 15:06:37;;;;;;;1.45;1.30;;;;;;;22.93;57.81;99634.31;6241672;28;20048;-88
2022/06/08 15:09:40;;;;;;;1.30;1.17;;;;;;;22.60;60.16;99631.28;6264428;28;20053;-89
2022/06/08 15:12:44;;;;;;;1.48;1.10;;;;;;;22.30;63.04;99632.03;6265602;28;20052;-89